Time;durP1;ratioP1;P1;durP2;ratioP2;P2;SDS_P1;SDS_P2;PMS_P1;PMS_P2;Temp;Humidity;BMP_temperature;BMP_pressure;BME280_temperature;BME280_humidity;BME280_pressure;Samples;Min_cycle;Max_cycle;Signal;HPM_P1;HPM_P2
2024/01/09 00:01:27;;;;;;;15.67;9.47;;;-2.80;91.70;;;;;;5063209;28;20490;-65
2024/01/09 00:03:56;;;;;;;47.10;9.20;;;-2.90;91.60;;;;;;5061047;28;20482;-66
2024/01/09 00:06:22;;;;;;;9.87;6.93;;;-2.90;91.60;;;;;;5064006;28;21184;-66
2024/01/09 00:08:49;;;;;;;14.23;7.07;;;-2.90;91.60;;;;;;5044202;28;20480;-66
2024/01/09 00:11:16;;;;;;;7.07;4.67;;;-2.90;91.50;;;;;;5048980;28;20479;-66
2024/01/09 00:13:43;;;;;;;24.20;4.47;;;-3.00;91.40;;;;;;5046039;28;21293;-66
2024/01/09 00:16:10;;;;;;;4.80;3.33;;;-3.00;91.40;;;;;;5047921;28;20897;-66
2024/01/09 00:18:37;;;;;;;13.40;5.93;;;;;;;;;;5025388;28;20494;-67
2024/01/09 00:21:06;;;;;;;15.93;7.77;;;-3.00;91.70;;;;;;5058168;28;20532;-67
2024/01/09 00:23:33;;;;;;;10.27;5.87;;;-3.00;91.70;;;;;;5017199;28;21189;-66
2024/01/09 00:26:01;;;;;;;13.10;8.10;;;-3.00;91.60;;;;;;5008434;28;20491;-67
2024/01/09 00:28:28;;;;;;;12.50;5.63;;;-3.10;91.40;;;;;;5054761;28;20482;-67
2024/01/09 00:30:55;;;;;;;14.63;7.10;;;-3.10;91.50;;;;;;5023580;28;20553;-67
2024/01/09 00:33:22;;;;;;;12.80;4.83;;;-3.10;91.50;;;;;;5039986;28;20491;-66
2024/01/09 00:35:49;;;;;;;15.27;6.07;;;-3.10;91.50;;;;;;5031885;28;20588;-66
2024/01/09 00:38:17;;;;;;;16.53;7.53;;;-3.20;91.50;;;;;;5067963;28;20478;-66
2024/01/09 00:40:44;;;;;;;45.40;9.70;;;-3.20;91.50;;;;;;5046429;28;22584;-66
2024/01/09 00:43:11;;;;;;;12.83;5.40;;;-3.20;91.40;;;;;;5040924;28;20947;-66
2024/01/09 00:45:38;;;;;;;23.53;7.83;;;-3.20;91.60;;;;;;5048238;28;20552;-66
2024/01/09 00:48:06;;;;;;;31.47;7.70;;;-3.20;91.50;;;;;;5028971;28;20897;-66
2024/01/09 00:50:33;;;;;;;9.70;5.00;;;-3.20;91.50;;;;;;5047774;28;20491;-66
2024/01/09 00:52:59;;;;;;;13.40;8.70;;;-3.20;91.50;;;;;;5045901;28;20479;-66
2024/01/09 00:55:28;;;;;;;16.40;8.30;;;-3.20;91.40;;;;;;5061224;28;20484;-66
2024/01/09 00:57:55;;;;;;;12.70;5.03;;;-3.10;91.60;;;;;;5061352;28;20482;-65
2024/01/09 01:00:22;;;;;;;18.97;8.87;;;-3.20;91.50;;;;;;5054007;28;20482;-65
2024/01/09 01:02:49;;;;;;;22.23;9.30;;;-3.20;91.40;;;;;;5004962;28;20541;-65
2024/01/09 01:05:16;;;;;;;14.80;6.27;;;-3.20;91.50;;;;;;5025548;28;20471;-65
2024/01/09 01:07:43;;;;;;;24.47;7.57;;;-3.20;91.30;;;;;;5046180;28;21096;-65
2024/01/09 01:10:13;;;;;;;7.97;5.17;;;-3.30;91.10;;;;;;5046582;28;21077;-66
2024/01/09 01:12:41;;;;;;;25.57;8.23;;;-3.30;91.20;;;;;;5032379;28;20858;-67
2024/01/09 01:15:09;;;;;;;7.67;5.33;;;-3.20;91.40;;;;;;5061852;28;20859;-67
2024/01/09 01:17:36;;;;;;;6.83;5.37;;;-3.30;91.40;;;;;;5063646;28;20471;-66
2024/01/09 01:20:03;;;;;;;23.03;7.50;;;-3.30;91.20;;;;;;5019333;28;20496;-66
2024/01/09 01:22:30;;;;;;;36.50;9.33;;;-3.40;91.20;;;;;;5062363;28;20840;-67
2024/01/09 01:24:57;;;;;;;14.37;8.00;;;-3.40;91.30;;;;;;5027573;28;20489;-67
2024/01/09 01:27:24;;;;;;;19.13;9.67;;;-3.40;91.20;;;;;;5018205;28;20487;-67
2024/01/09 01:29:52;;;;;;;13.80;5.73;;;-3.40;91.20;;;;;;5038446;28;20477;-67
2024/01/09 01:32:19;;;;;;;7.07;4.80;;;-3.40;91.30;;;;;;5041580;28;20482;-66
2024/01/09 01:34:47;;;;;;;15.30;9.97;;;-3.40;91.30;;;;;;5017922;28;20564;-67
2024/01/09 01:37:15;;;;;;;7.87;5.87;;;-3.40;91.20;;;;;;5031850;28;20895;-66
2024/01/09 01:39:41;;;;;;;10.47;5.57;;;-3.40;91.20;;;;;;5062767;28;20477;-67
2024/01/09 01:42:08;;;;;;;18.87;7.97;;;-3.40;91.20;;;;;;5016652;28;20588;-67
2024/01/09 01:44:35;;;;;;;19.03;7.27;;;;;;;;;;5006831;28;20865;-66
2024/01/09 01:47:06;;;;;;;48.10;9.93;;;-3.30;91.20;;;;;;5066957;28;20900;-66
2024/01/09 01:49:32;;;;;;;18.27;8.63;;;-3.40;91.10;;;;;;5026862;28;20548;-66
2024/01/09 01:52:00;;;;;;;15.07;8.83;;;-3.40;91.10;;;;;;5064050;28;20888;-67
2024/01/09 01:54:28;;;;;;;23.33;7.03;;;-3.40;91.10;;;;;;5055686;28;20479;-66
2024/01/09 01:56:55;;;;;;;21.07;8.90;;;-3.40;91.20;;;;;;5063436;28;20786;-66
2024/01/09 01:59:24;;;;;;;11.30;6.27;;;-3.40;91.30;;;;;;5065123;28;20490;-67
2024/01/09 02:01:52;;;;;;;12.53;5.37;;;-3.40;91.10;;;;;;5048283;28;20547;-66
2024/01/09 02:04:21;;;;;;;14.17;8.07;;;-3.50;91.10;;;;;;5049113;28;20487;-66
2024/01/09 02:06:48;;;;;;;14.10;7.23;;;-3.40;91.20;;;;;;5038690;28;20930;-66
2024/01/09 02:09:16;;;;;;;14.70;8.40;;;-3.50;91.10;;;;;;5053390;28;20520;-66
2024/01/09 02:11:43;;;;;;;11.30;4.13;;;-3.50;91.00;;;;;;5044967;28;20826;-67
2024/01/09 02:14:10;;;;;;;15.23;8.17;;;;;;;;;;5061293;28;21198;-66
2024/01/09 02:16:37;;;;;;;28.27;10.80;;;-3.50;91.10;;;;;;5037935;28;20494;-66
2024/01/09 02:19:04;;;;;;;24.80;8.13;;;-3.50;91.20;;;;;;5020885;28;20498;-66
2024/01/09 02:21:33;;;;;;;38.90;11.83;;;-3.60;91.20;;;;;;5045788;28;20489;-67
2024/01/09 02:24:00;;;;;;;14.67;6.97;;;-3.50;91.20;;;;;;5040239;28;20977;-66
2024/01/09 02:26:31;;;;;;;14.73;7.17;;;-3.60;91.10;;;;;;5067080;28;20478;-66
2024/01/09 02:29:02;;;;;;;27.87;9.03;;;-3.50;91.10;;;;;;5020969;28;20480;-65
2024/01/09 02:31:31;;;;;;;19.20;8.20;;;-3.50;91.10;;;;;;5028010;28;20906;-66
2024/01/09 02:33:59;;;;;;;12.37;9.50;;;-3.50;91.10;;;;;;5020080;28;20890;-66
2024/01/09 02:36:26;;;;;;;20.13;9.37;;;-3.40;91.20;;;;;;5035122;28;20860;-66
2024/01/09 02:38:53;;;;;;;14.77;7.27;;;-3.50;90.80;;;;;;5020155;28;20494;-66
2024/01/09 02:41:20;;;;;;;15.50;6.40;;;-3.50;90.80;;;;;;5043414;28;20486;-66
2024/01/09 02:43:47;;;;;;;20.97;10.17;;;-3.60;91.00;;;;;;5032286;28;20535;-66
2024/01/09 02:46:14;;;;;;;7.13;4.93;;;-3.50;91.20;;;;;;5039865;28;20488;-66
2024/01/09 02:48:42;;;;;;;44.87;11.27;;;-3.60;91.10;;;;;;5037202;28;20542;-66
2024/01/09 02:51:09;;;;;;;11.03;6.53;;;-3.50;91.10;;;;;;5049146;28;20845;-66
2024/01/09 02:53:36;;;;;;;22.87;9.97;;;-3.60;90.90;;;;;;5029180;28;20738;-66
2024/01/09 02:56:03;;;;;;;42.07;11.07;;;-3.60;91.00;;;;;;5051913;28;20482;-65
2024/01/09 02:58:29;;;;;;;22.10;10.90;;;-3.60;91.00;;;;;;5044395;28;20520;-66
2024/01/09 03:00:56;;;;;;;15.80;8.40;;;-3.50;91.00;;;;;;5038174;28;20541;-66
2024/01/09 03:03:23;;;;;;;18.37;7.77;;;-3.50;91.00;;;;;;5031948;28;20835;-67
2024/01/09 03:05:51;;;;;;;24.63;7.83;;;-3.50;91.20;;;;;;5052705;28;20520;-66
2024/01/09 03:08:18;;;;;;;10.50;7.40;;;-3.50;91.00;;;;;;5031174;28;20490;-66
2024/01/09 03:10:45;;;;;;;22.53;8.53;;;-3.40;91.00;;;;;;5033580;28;20576;-65
2024/01/09 03:13:12;;;;;;;25.73;9.83;;;-3.50;90.80;;;;;;5034714;28;20929;-65
2024/01/09 03:15:39;;;;;;;14.13;8.67;;;-3.40;91.10;;;;;;5052105;28;20519;-66
2024/01/09 03:18:06;;;;;;;13.13;8.77;;;-3.50;90.80;;;;;;5030713;28;21361;-66
2024/01/09 03:20:32;;;;;;;18.23;9.83;;;-3.50;90.80;;;;;;5044537;28;20523;-66
2024/01/09 03:23:01;;;;;;;19.97;9.50;;;-3.50;90.90;;;;;;5045493;28;20479;-65
2024/01/09 03:25:27;;;;;;;23.97;7.33;;;-3.50;90.80;;;;;;5031564;28;20486;-66
2024/01/09 03:27:55;;;;;;;11.40;6.57;;;-3.50;90.80;;;;;;5050267;28;20478;-66
2024/01/09 03:30:22;;;;;;;27.47;8.77;;;-3.60;90.60;;;;;;5054072;28;21015;-66
2024/01/09 03:32:49;;;;;;;13.60;7.77;;;-3.50;90.80;;;;;;5054387;28;20478;-66
2024/01/09 03:35:16;;;;;;;16.07;8.60;;;-3.50;90.90;;;;;;5073831;28;21161;-66
2024/01/09 03:37:43;;;;;;;25.97;9.33;;;-3.50;90.90;;;;;;5060551;28;20879;-65
2024/01/09 03:40:12;;;;;;;20.73;8.70;;;-3.50;90.70;;;;;;5037021;28;20482;-66
2024/01/09 03:42:40;;;;;;;20.50;9.93;;;-3.50;90.80;;;;;;5037132;28;20568;-66
2024/01/09 03:45:08;;;;;;;20.80;9.37;;;-3.50;90.90;;;;;;5041059;28;21011;-66
2024/01/09 03:47:35;;;;;;;9.33;6.30;;;-3.50;90.80;;;;;;5042383;28;22038;-66
2024/01/09 03:50:02;;;;;;;24.83;11.43;;;-3.50;90.90;;;;;;5019330;28;20483;-66
2024/01/09 03:52:29;;;;;;;15.43;8.53;;;-3.50;90.80;;;;;;5061279;28;20491;-66
2024/01/09 03:54:55;;;;;;;15.90;9.27;;;-3.50;90.70;;;;;;5046589;28;20568;-65
2024/01/09 03:57:24;;;;;;;9.90;7.83;;;;;;;;;;5062441;28;21195;-65
2024/01/09 03:59:51;;;;;;;33.43;10.83;;;-3.60;90.80;;;;;;5062042;28;20736;-66
2024/01/09 04:02:18;;;;;;;16.70;6.20;;;-3.60;90.90;;;;;;5044671;28;20543;-66
2024/01/09 04:04:45;;;;;;;24.10;7.50;;;-3.60;90.80;;;;;;5056404;28;20486;-66
2024/01/09 04:07:11;;;;;;;26.20;10.23;;;-3.50;91.00;;;;;;5070009;28;20482;-66
2024/01/09 04:09:38;;;;;;;19.90;8.63;;;-3.50;90.90;;;;;;5019454;28;20495;-66
2024/01/09 04:12:06;;;;;;;18.47;8.50;;;-3.50;90.80;;;;;;5055603;28;20489;-66
2024/01/09 04:14:34;;;;;;;42.63;9.97;;;-3.50;90.80;;;;;;5071577;28;20478;-66
2024/01/09 04:17:01;;;;;;;15.07;8.80;;;-3.60;90.60;;;;;;5017905;28;20475;-66
2024/01/09 04:19:28;;;;;;;11.83;4.93;;;-3.60;90.70;;;;;;5029393;28;20637;-66
2024/01/09 04:21:55;;;;;;;5.37;4.20;;;-3.60;90.70;;;;;;5044497;28;20497;-66
2024/01/09 04:24:21;;;;;;;10.00;5.77;;;-3.60;90.80;;;;;;5041884;28;20533;-66
2024/01/09 04:26:48;;;;;;;16.63;8.93;;;-3.70;90.80;;;;;;5048980;28;21501;-66
2024/01/09 04:29:15;;;;;;;9.53;5.97;;;-3.70;90.80;;;;;;5032724;28;20909;-65
2024/01/09 04:31:43;;;;;;;15.90;8.00;;;-3.80;90.60;;;;;;5039160;28;20603;-65
2024/01/09 04:34:10;;;;;;;45.67;8.93;;;-3.70;90.90;;;;;;5043162;28;20479;-66
2024/01/09 04:36:37;;;;;;;4.50;3.03;;;-3.70;90.70;;;;;;5043208;28;20490;-66
2024/01/09 04:39:04;;;;;;;35.37;7.70;;;-3.70;90.70;;;;;;5027801;28;20471;-65
2024/01/09 04:41:31;;;;;;;20.23;8.70;;;-3.70;90.80;;;;;;5043095;28;20495;-65
2024/01/09 04:43:58;;;;;;;15.93;5.40;;;-3.70;90.80;;;;;;5070697;28;20474;-65
2024/01/09 04:46:25;;;;;;;34.93;8.30;;;-3.70;90.80;;;;;;5050832;28;20482;-66
2024/01/09 04:48:53;;;;;;;30.33;10.23;;;-3.70;90.80;;;;;;5052667;28;20540;-66
2024/01/09 04:51:20;;;;;;;10.67;7.87;;;-3.70;90.80;;;;;;5043433;28;20475;-66
2024/01/09 04:53:47;;;;;;;25.40;8.53;;;-3.70;90.70;;;;;;5069045;28;20544;-65
2024/01/09 04:56:13;;;;;;;10.63;6.30;;;-3.70;90.70;;;;;;5069508;28;20494;-65
2024/01/09 04:58:40;;;;;;;15.77;6.83;;;-3.80;90.60;;;;;;5062356;28;20486;-66
2024/01/09 05:01:11;;;;;;;22.10;6.67;;;-3.80;90.80;;;;;;5068531;28;20485;-66
2024/01/09 05:03:38;;;;;;;8.00;6.27;;;-3.80;90.80;;;;;;5052301;28;20545;-66
2024/01/09 05:06:06;;;;;;;11.53;6.20;;;-3.80;90.60;;;;;;5060404;28;20515;-66
2024/01/09 05:08:33;;;;;;;13.70;7.37;;;-3.80;90.70;;;;;;5032914;28;20542;-66
2024/01/09 05:11:00;;;;;;;11.30;6.80;;;-3.80;90.80;;;;;;5037872;28;20478;-66
2024/01/09 05:13:28;;;;;;;36.70;8.00;;;-3.80;90.80;;;;;;5054232;28;20863;-66
2024/01/09 05:15:56;;;;;;;12.23;6.30;;;-3.80;91.00;;;;;;5035435;28;20672;-65
2024/01/09 05:18:23;;;;;;;10.90;4.27;;;-3.80;91.10;;;;;;5051891;28;20495;-66
2024/01/09 05:20:50;;;;;;;43.50;8.50;;;-3.80;90.90;;;;;;5044036;28;20826;-65
2024/01/09 05:23:18;;;;;;;8.63;4.80;;;-3.80;91.00;;;;;;5026127;28;20485;-65
2024/01/09 05:25:45;;;;;;;11.00;6.33;;;-3.80;91.00;;;;;;5053070;28;20486;-66
2024/01/09 05:28:12;;;;;;;18.50;7.57;;;-3.80;91.00;;;;;;5060804;28;21276;-66
2024/01/09 05:30:39;;;;;;;18.97;7.70;;;-3.80;90.90;;;;;;5041825;28;20529;-66
2024/01/09 05:33:06;;;;;;;11.60;6.07;;;-3.80;91.00;;;;;;5045301;28;20507;-66
2024/01/09 05:35:32;;;;;;;12.43;5.50;;;-3.80;91.00;;;;;;5041164;28;22042;-66
2024/01/09 05:37:59;;;;;;;9.70;5.20;;;-3.90;90.90;;;;;;5041258;28;20906;-66
2024/01/09 05:40:28;;;;;;;12.10;5.17;;;-3.90;90.90;;;;;;5056467;28;20479;-67
2024/01/09 05:42:55;;;;;;;10.90;6.47;;;-3.90;91.00;;;;;;5047687;28;20482;-65
2024/01/09 05:45:22;;;;;;;17.17;8.90;;;-3.90;90.90;;;;;;5049431;28;20503;-66
2024/01/09 05:47:49;;;;;;;29.10;4.80;;;-3.90;91.00;;;;;;5044189;28;20896;-65
2024/01/09 05:50:17;;;;;;;16.17;7.97;;;-3.90;91.10;;;;;;5045614;28;20471;-67
2024/01/09 05:52:44;;;;;;;12.23;7.00;;;-3.90;91.00;;;;;;5029974;28;20474;-66
2024/01/09 05:55:12;;;;;;;34.53;6.73;;;-3.90;91.00;;;;;;5043329;28;20500;-66
2024/01/09 05:57:40;;;;;;;10.53;7.23;;;-3.90;91.00;;;;;;5042944;28;20488;-66
2024/01/09 06:00:09;;;;;;;9.23;5.10;;;-3.90;91.00;;;;;;5045126;28;20487;-66
2024/01/09 06:02:36;;;;;;;20.80;7.93;;;-3.90;91.00;;;;;;5048925;28;20506;-66
2024/01/09 06:05:03;;;;;;;15.90;8.23;;;-3.90;90.90;;;;;;5018411;28;20494;-66
2024/01/09 06:07:30;;;;;;;7.83;3.80;;;-3.90;91.10;;;;;;5061870;28;20491;-66
2024/01/09 06:09:57;;;;;;;19.53;8.23;;;-3.90;91.10;;;;;;5047143;28;20485;-66
2024/01/09 06:12:24;;;;;;;8.33;6.67;;;-3.90;91.00;;;;;;5031306;28;20479;-65
2024/01/09 06:14:53;;;;;;;18.20;7.73;;;-3.90;91.10;;;;;;5035814;28;20489;-67
2024/01/09 06:17:21;;;;;;;27.47;8.50;;;-3.90;91.10;;;;;;5048259;28;20483;-66
2024/01/09 06:19:48;;;;;;;18.23;7.70;;;-3.90;91.00;;;;;;5031558;28;20491;-66
2024/01/09 06:22:14;;;;;;;40.70;8.23;;;-3.90;91.00;;;;;;5011058;28;20488;-66
2024/01/09 06:24:41;;;;;;;20.90;7.13;;;-3.90;91.10;;;;;;5036787;28;20492;-66
2024/01/09 06:27:08;;;;;;;16.40;7.87;;;-3.80;91.20;;;;;;5033236;28;20490;-66
2024/01/09 06:29:35;;;;;;;17.90;7.07;;;-3.90;91.00;;;;;;5039184;28;20913;-65
2024/01/09 06:32:03;;;;;;;7.73;4.73;;;-3.80;91.20;;;;;;5015827;28;20534;-65
2024/01/09 06:34:30;;;;;;;11.73;7.00;;;-3.80;91.10;;;;;;5039039;28;20592;-65
2024/01/09 06:36:57;;;;;;;22.37;8.17;;;-3.90;91.10;;;;;;5041336;28;20497;-66
2024/01/09 06:39:24;;;;;;;8.63;5.33;;;-3.90;91.00;;;;;;5021674;28;20490;-66
2024/01/09 06:41:51;;;;;;;13.33;6.30;;;-3.90;91.10;;;;;;5029147;28;20582;-66
2024/01/09 06:44:18;;;;;;;17.63;6.37;;;-3.90;91.20;;;;;;5032406;28;20535;-65
2024/01/09 06:46:45;;;;;;;18.67;7.20;;;-3.90;91.20;;;;;;5051423;28;20536;-65
2024/01/09 06:49:13;;;;;;;6.70;3.90;;;-3.90;91.20;;;;;;5032612;28;20472;-65
2024/01/09 06:51:40;;;;;;;12.50;6.60;;;-3.90;91.10;;;;;;5000887;28;20492;-65
2024/01/09 06:54:07;;;;;;;7.13;5.90;;;-3.90;91.20;;;;;;5046076;28;20510;-66
2024/01/09 06:56:34;;;;;;;29.33;7.90;;;-3.90;91.20;;;;;;5016677;28;20479;-66
2024/01/09 06:59:01;;;;;;;15.10;7.60;;;-3.90;91.20;;;;;;5012060;28;21070;-66
2024/01/09 07:01:27;;;;;;;15.33;4.20;;;-3.90;91.20;;;;;;5031918;28;21117;-66
2024/01/09 07:03:54;;;;;;;12.20;5.63;;;-3.90;91.20;;;;;;5037518;28;20537;-66
2024/01/09 07:06:22;;;;;;;7.47;4.77;;;-3.90;91.20;;;;;;5028076;28;20990;-65
2024/01/09 07:08:49;;;;;;;15.10;7.40;;;-3.90;91.20;;;;;;5033805;28;20488;-65
2024/01/09 07:11:16;;;;;;;14.30;6.57;;;-3.90;91.30;;;;;;5036743;28;20483;-65
2024/01/09 07:13:43;;;;;;;22.03;4.23;;;-3.90;91.30;;;;;;5045541;28;20475;-65
2024/01/09 07:16:10;;;;;;;10.33;5.37;;;-3.90;91.30;;;;;;5023121;28;20686;-65
2024/01/09 07:18:37;;;;;;;8.80;4.63;;;-4.00;91.20;;;;;;5025155;28;20499;-65
2024/01/09 07:21:04;;;;;;;14.63;6.33;;;-3.90;91.20;;;;;;5033123;28;20528;-65
2024/01/09 07:23:33;;;;;;;10.33;6.17;;;-3.90;91.30;;;;;;5032919;28;20990;-65
2024/01/09 07:26:00;;;;;;;18.20;7.03;;;-3.90;91.40;;;;;;5028580;28;20467;-64
2024/01/09 07:28:27;;;;;;;15.17;5.90;;;-3.90;91.40;;;;;;5024817;28;20488;-64
2024/01/09 07:30:54;;;;;;;56.00;8.20;;;-3.90;91.40;;;;;;5031861;28;20745;-64
2024/01/09 07:33:21;;;;;;;14.13;6.93;;;-3.90;91.20;;;;;;5029848;28;20475;-65
2024/01/09 07:35:48;;;;;;;33.23;6.37;;;-3.90;91.30;;;;;;5011457;28;20620;-65
2024/01/09 07:38:21;;;;;;;15.73;5.57;;;-3.80;91.30;;;;;;5038075;28;20536;-65
2024/01/09 07:40:49;;;;;;;6.00;3.97;;;-3.90;91.10;;;;;;5012641;28;20475;-64
2024/01/09 07:43:17;;;;;;;7.57;4.37;;;-3.90;91.20;;;;;;4991641;28;20549;-65
2024/01/09 07:45:44;;;;;;;20.77;6.33;;;-3.80;91.40;;;;;;5040188;28;20479;-65
2024/01/09 07:48:10;;;;;;;11.70;6.80;;;-3.90;91.10;;;;;;5005442;28;20728;-65
2024/01/09 07:50:37;;;;;;;12.50;5.20;;;-3.90;91.10;;;;;;5026796;28;20932;-65
2024/01/09 07:53:04;;;;;;;34.07;6.00;;;-3.80;91.10;;;;;;5023615;28;20479;-65
2024/01/09 07:55:31;;;;;;;9.20;5.40;;;-3.80;91.20;;;;;;5032226;28;20530;-65
2024/01/09 07:58:01;;;;;;;8.93;4.73;;;-3.80;91.20;;;;;;5037771;28;20488;-65
2024/01/09 08:00:27;;;;;;;8.10;5.33;;;-3.80;91.00;;;;;;5030419;28;22208;-65
2024/01/09 08:02:54;;;;;;;7.93;5.17;;;-3.80;91.10;;;;;;5045270;28;21088;-65
2024/01/09 08:05:22;;;;;;;48.40;6.90;;;;;;;;;;5031950;28;20531;-65
2024/01/09 08:07:49;;;;;;;10.00;5.27;;;-3.70;91.10;;;;;;5013719;28;20482;-65
2024/01/09 08:10:16;;;;;;;19.23;6.63;;;-3.60;91.00;;;;;;5022471;28;20496;-65
2024/01/09 08:12:43;;;;;;;13.83;5.47;;;-3.60;90.90;;;;;;5026145;28;20858;-65
2024/01/09 08:15:11;;;;;;;9.60;6.20;;;-3.50;90.90;;;;;;5001098;28;20498;-65
2024/01/09 08:17:38;;;;;;;10.90;5.30;;;-3.40;91.00;;;;;;5015602;28;20475;-66
2024/01/09 08:20:06;;;;;;;34.30;5.60;;;-3.30;90.90;;;;;;5044129;28;20510;-67
2024/01/09 08:22:33;;;;;;;23.40;7.20;;;-3.10;91.10;;;;;;5029880;28;20479;-67
2024/01/09 08:25:00;;;;;;;16.30;8.10;;;-3.00;91.00;;;;;;5034974;28;20490;-66
2024/01/09 08:27:27;;;;;;;21.20;8.70;;;-2.60;91.10;;;;;;5024493;28;20483;-66
2024/01/09 08:29:54;;;;;;;17.43;7.67;;;-2.10;91.30;;;;;;5035394;28;20475;-67
2024/01/09 08:32:23;;;;;;;18.37;8.83;;;-1.50;91.10;;;;;;5027198;28;20829;-66
2024/01/09 08:34:50;;;;;;;12.73;7.67;;;-0.20;90.00;;;;;;5027250;28;20487;-65
2024/01/09 08:37:17;;;;;;;10.67;5.43;;;0.00;88.00;;;;;;5028894;28;20567;-66
2024/01/09 08:39:44;;;;;;;33.67;8.23;;;0.30;86.50;;;;;;5013002;28;20481;-66
2024/01/09 08:42:13;;;;;;;11.73;5.60;;;0.40;85.70;;;;;;5025056;28;20565;-67
2024/01/09 08:44:40;;;;;;;14.87;5.87;;;0.30;85.30;;;;;;5029578;28;20487;-66
2024/01/09 08:47:07;;;;;;;18.23;7.57;;;0.10;85.00;;;;;;5027652;28;20468;-66
2024/01/09 08:49:35;;;;;;;7.93;5.13;;;-0.10;84.90;;;;;;5035034;28;20481;-65
2024/01/09 08:52:02;;;;;;;15.73;9.80;;;-0.50;84.70;;;;;;5031329;28;20482;-66
2024/01/09 08:54:28;;;;;;;14.60;8.10;;;-0.70;85.50;;;;;;5037330;28;21007;-66
2024/01/09 08:56:55;;;;;;;24.87;8.20;;;-0.70;85.80;;;;;;5013374;28;20478;-66
2024/01/09 08:59:23;;;;;;;8.67;4.87;;;-0.50;86.20;;;;;;5028176;28;20804;-66
2024/01/09 09:01:50;;;;;;;14.03;6.20;;;-0.20;86.00;;;;;;5022676;28;20471;-66
2024/01/09 09:04:17;;;;;;;16.27;6.87;;;0.00;85.50;;;;;;5023235;28;20538;-66
2024/01/09 09:06:45;;;;;;;7.93;4.87;;;0.20;85.70;;;;;;5036687;28;20486;-66
2024/01/09 09:09:12;;;;;;;9.93;6.10;;;0.00;84.50;;;;;;5042345;28;20513;-66
2024/01/09 09:11:39;;;;;;;13.03;6.33;;;-0.10;84.70;;;;;;5021810;28;21012;-65
2024/01/09 09:14:06;;;;;;;17.47;7.40;;;;;;;;;;5035406;28;20479;-66
2024/01/09 09:16:33;;;;;;;20.70;6.13;;;-0.40;85.50;;;;;;5035633;28;20483;-66
2024/01/09 09:19:02;;;;;;;31.27;8.00;;;-0.40;85.70;;;;;;5010848;28;20556;-67
2024/01/09 09:21:29;;;;;;;18.53;8.17;;;-0.60;84.60;;;;;;5023048;28;20498;-66
2024/01/09 09:23:57;;;;;;;18.10;9.27;;;-0.60;84.90;;;;;;5042096;28;20532;-66
2024/01/09 09:26:24;;;;;;;9.60;4.77;;;-0.70;85.50;;;;;;5032854;28;20521;-64
2024/01/09 09:28:51;;;;;;;17.97;7.80;;;-0.80;86.30;;;;;;5032462;28;20916;-65
2024/01/09 09:31:17;;;;;;;27.43;7.43;;;-0.80;86.20;;;;;;5027176;28;20508;-64
2024/01/09 09:33:44;;;;;;;9.57;6.13;;;-0.80;85.90;;;;;;5005681;28;20504;-64
2024/01/09 09:36:13;;;;;;;13.50;7.13;;;-0.70;85.70;;;;;;5023814;28;20502;-64
2024/01/09 09:38:40;;;;;;;13.67;7.27;;;-0.70;86.10;;;;;;5025803;28;20597;-64
2024/01/09 09:41:08;;;;;;;13.13;7.37;;;-0.60;86.30;;;;;;5026227;28;20472;-64
2024/01/09 09:43:37;;;;;;;10.90;7.20;;;-0.20;86.80;;;;;;5033933;28;20544;-64
2024/01/09 09:46:04;;;;;;;5.73;3.97;;;0.10;87.40;;;;;;5036310;28;20528;-64
2024/01/09 09:48:33;;;;;;;13.00;3.80;;;0.50;85.50;;;;;;5008659;28;22770;-64
2024/01/09 09:51:04;;;;;;;15.83;8.00;;;0.70;85.40;;;;;;5050428;28;21406;-65
2024/01/09 09:53:31;;;;;;;11.40;4.97;;;1.00;85.50;;;;;;5027062;28;20487;-65
2024/01/09 09:55:59;;;;;;;19.77;4.70;;;1.00;83.30;;;;;;5027773;28;20508;-65
2024/01/09 09:58:29;;;;;;;11.43;6.07;;;1.10;83.90;;;;;;4998915;28;20506;-64
2024/01/09 10:00:58;;;;;;;10.53;6.03;;;1.20;83.30;;;;;;5040046;28;21019;-64
2024/01/09 10:03:31;;;;;;;18.13;5.47;;;1.00;81.70;;;;;;5021095;28;20483;-64
2024/01/09 10:06:02;;;;;;;14.27;6.20;;;1.00;83.40;;;;;;5001608;28;20482;-64
2024/01/09 10:08:33;;;;;;;10.37;7.67;;;0.90;83.10;;;;;;5016148;28;20478;-64
2024/01/09 10:11:00;;;;;;;8.20;3.53;;;0.60;81.80;;;;;;5019619;28;20496;-64
2024/01/09 10:13:29;;;;;;;11.83;5.57;;;0.50;81.60;;;;;;5018941;28;20883;-64
2024/01/09 10:15:57;;;;;;;22.33;7.67;;;0.20;82.80;;;;;;5021141;28;20879;-64
2024/01/09 10:18:28;;;;;;;22.67;8.50;;;0.10;83.80;;;;;;5033149;28;20483;-64
2024/01/09 10:20:55;;;;;;;16.97;7.53;;;0.00;83.40;;;;;;5027965;28;20534;-64
2024/01/09 10:23:22;;;;;;;31.73;7.37;;;-0.20;83.00;;;;;;5030161;28;20475;-64
2024/01/09 10:25:49;;;;;;;12.83;6.83;;;-0.20;84.00;;;;;;5026259;28;20479;-64
2024/01/09 10:28:17;;;;;;;10.70;6.27;;;-0.20;84.10;;;;;;5025369;28;20990;-64
2024/01/09 10:30:46;;;;;;;19.47;6.43;;;-0.30;83.40;;;;;;5039197;28;20535;-64
2024/01/09 10:33:14;;;;;;;16.93;7.77;;;-0.30;84.60;;;;;;4978796;28;20481;-65
2024/01/09 10:35:41;;;;;;;10.03;5.90;;;-0.30;84.30;;;;;;5033140;28;20490;-64
2024/01/09 10:38:09;;;;;;;15.53;7.83;;;-0.30;84.20;;;;;;4987599;28;20468;-64
2024/01/09 10:40:36;;;;;;;13.13;7.80;;;-0.30;83.80;;;;;;5013740;28;20926;-65
2024/01/09 10:43:04;;;;;;;14.53;6.50;;;-0.30;84.20;;;;;;5039738;28;20483;-64
2024/01/09 10:45:31;;;;;;;12.80;6.53;;;-0.20;84.20;;;;;;5035302;28;20684;-64
2024/01/09 10:48:00;;;;;;;9.57;5.77;;;-0.20;84.60;;;;;;5017756;28;20480;-64
2024/01/09 10:50:27;;;;;;;30.60;7.23;;;;;;;;;;5038015;28;20553;-64
2024/01/09 10:52:54;;;;;;;21.63;7.60;;;0.00;84.10;;;;;;5025932;28;20476;-64
2024/01/09 10:55:23;;;;;;;15.00;7.10;;;-0.10;83.00;;;;;;5036788;28;20474;-64
2024/01/09 10:57:50;;;;;;;18.30;7.10;;;-0.10;84.10;;;;;;5009852;28;20484;-64
2024/01/09 11:00:17;;;;;;;10.00;5.20;;;0.00;84.30;;;;;;5029796;28;20494;-64
2024/01/09 11:02:45;;;;;;;8.93;3.60;;;0.00;83.80;;;;;;4996807;28;20981;-65
2024/01/09 11:05:13;;;;;;;10.80;7.23;;;0.10;84.20;;;;;;5027258;28;20471;-65
2024/01/09 11:07:43;;;;;;;29.03;10.90;;;0.30;84.70;;;;;;5036684;28;20492;-65
2024/01/09 11:10:17;;;;;;;14.10;7.43;;;0.30;84.00;;;;;;5018597;28;20530;-65
2024/01/09 11:12:47;;;;;;;17.10;8.10;;;0.30;83.00;;;;;;5034799;28;20496;-64
2024/01/09 11:15:19;;;;;;;11.00;5.90;;;0.40;84.00;;;;;;5038427;28;20699;-65
2024/01/09 11:17:50;;;;;;;14.63;7.47;;;0.40;84.50;;;;;;5041522;28;20540;-64
2024/01/09 11:20:19;;;;;;;35.63;10.53;;;0.60;83.90;;;;;;5034276;28;20691;-64
2024/01/09 11:22:46;;;;;;;8.10;6.60;;;0.70;83.40;;;;;;5027141;28;20850;-64
2024/01/09 11:25:16;;;;;;;21.63;8.87;;;0.80;82.40;;;;;;4998431;28;20483;-65
2024/01/09 11:27:47;;;;;;;11.73;5.50;;;1.00;82.70;;;;;;5026229;28;21104;-65
2024/01/09 11:30:16;;;;;;;18.67;8.00;;;1.30;83.90;;;;;;5028455;28;20499;-65
2024/01/09 11:32:44;;;;;;;28.97;7.97;;;1.50;80.80;;;;;;5017531;28;20482;-65
2024/01/09 11:35:12;;;;;;;24.23;8.83;;;1.60;80.60;;;;;;5036676;28;20485;-64
2024/01/09 11:37:43;;;;;;;11.80;7.10;;;1.60;79.10;;;;;;5002522;28;20456;-65
2024/01/09 11:40:12;;;;;;;7.90;6.03;;;1.60;76.90;;;;;;5032651;28;20480;-64
2024/01/09 11:42:40;;;;;;;14.13;9.17;;;1.70;77.50;;;;;;5032252;28;21133;-64
2024/01/09 11:45:09;;;;;;;13.37;9.47;;;1.80;78.70;;;;;;5021342;28;20482;-64
2024/01/09 11:47:38;;;;;;;12.50;7.60;;;2.00;77.50;;;;;;5018149;28;20491;-67
2024/01/09 11:50:07;;;;;;;16.10;8.17;;;2.10;76.30;;;;;;5021178;28;21038;-67
2024/01/09 11:52:35;;;;;;;42.83;9.23;;;2.20;75.20;;;;;;5015428;28;20524;-66
2024/01/09 11:55:05;;;;;;;6.67;3.50;;;2.20;74.20;;;;;;5020428;28;20478;-66
2024/01/09 11:57:33;;;;;;;17.10;6.13;;;2.30;75.90;;;;;;5038266;28;20488;-67
2024/01/09 12:00:01;;;;;;;17.33;9.17;;;2.20;74.40;;;;;;5022459;28;20594;-67
2024/01/09 12:02:28;;;;;;;9.30;6.23;;;2.40;75.60;;;;;;4997502;28;20492;-67
2024/01/09 12:04:55;;;;;;;13.50;7.40;;;2.20;74.60;;;;;;5030419;28;20480;-67
2024/01/09 12:07:23;;;;;;;25.33;9.80;;;2.00;72.50;;;;;;5036777;28;20541;-66
2024/01/09 12:09:50;;;;;;;13.90;9.73;;;1.80;71.90;;;;;;5034947;28;21095;-66
2024/01/09 12:12:24;;;;;;;17.23;8.40;;;1.20;69.80;;;;;;5029762;28;20474;-66
2024/01/09 12:14:54;;;;;;;18.30;9.50;;;1.50;72.50;;;;;;5030213;28;20483;-66
2024/01/09 12:17:23;;;;;;;14.03;7.40;;;1.70;74.10;;;;;;5032064;28;21210;-66
2024/01/09 12:19:53;;;;;;;18.73;9.07;;;;;;;;;;5028275;28;20483;-65
2024/01/09 12:22:21;;;;;;;29.70;10.43;;;2.00;73.90;;;;;;5035260;28;20487;-66
2024/01/09 12:24:49;;;;;;;26.07;10.30;;;1.70;71.80;;;;;;5028871;28;20746;-66
2024/01/09 12:27:16;;;;;;;29.17;9.03;;;1.60;71.90;;;;;;5035648;28;20479;-64
2024/01/09 12:29:45;;;;;;;19.10;10.10;;;1.60;73.50;;;;;;5032073;28;20476;-64
2024/01/09 12:32:12;;;;;;;15.60;7.63;;;1.60;74.50;;;;;;5039017;28;20486;-65
2024/01/09 12:34:40;;;;;;;13.60;8.10;;;;;;;;;;5033423;28;20559;-64
2024/01/09 12:37:08;;;;;;;20.73;11.03;;;1.50;73.30;;;;;;5037507;28;20471;-64
2024/01/09 12:39:35;;;;;;;18.57;10.43;;;1.50;74.50;;;;;;5038768;28;20726;-64
2024/01/09 12:42:06;;;;;;;22.17;9.90;;;1.50;75.60;;;;;;5039618;28;20536;-64
2024/01/09 12:44:34;;;;;;;11.67;7.80;;;1.50;75.00;;;;;;5004914;28;22277;-64